Harmon, Arkansas
Current Conditions -  °F | °C
As of 3:53 AM on Friday 19 Dec 2014 (Local Time) from KFYV Reporting Station
Haze Haze  
Wind Chill: 40°   Ceiling: 600
Heat Index: 40°   Visibility: 5mi
Dew Point: 39°   Wind: 0mph
Humidity: 97%   Direction: NA
Pressure: 30.18"   Gusts: NA
Location:  35.9902°N, 94.083°W
Report Text: KFYV 190953Z AUTO 00000KT 5SM BR OVC006 04/04 A3018 RMK AO2 SLP223 T00440039
Loading
Personal Weather Stations






























Interactive Weather Map New forecast layout! Learn more

10-Day Weather Forecast

Advertisements
Track Severe Weather on mobile